Time;durP1;ratioP1;P1;durP2;ratioP2;P2;SDS_P1;SDS_P2;PMS_P1;PMS_P2;Temp;Humidity;BMP_temperature;BMP_pressure;BME280_temperature;BME280_humidity;BME280_pressure;Samples;Min_cycle;Max_cycle;Signal;HPM_P1;HPM_P2
2022/01/07 00:01:13;;;;;;;37.90;18.30;;;;;;;4.82;100.00;96853.84;5041690;28;20049;-66
2022/01/07 00:03:41;;;;;;;39.50;19.13;;;;;;;4.71;100.00;96849.91;5043160;28;20064;-60
2022/01/07 00:06:07;;;;;;;40.33;17.73;;;;;;;4.65;100.00;96876.72;5043507;28;20433;-60
2022/01/07 00:08:34;;;;;;;42.72;20.02;;;;;;;4.57;100.00;96855.66;5042484;28;20057;-65
2022/01/07 00:11:01;;;;;;;37.50;18.20;;;;;;;4.73;100.00;96966.38;5043180;28;20049;-61
2022/01/07 00:13:28;;;;;;;43.08;18.25;;;;;;;4.73;100.00;96884.09;5043334;28;20434;-66
2022/01/07 00:15:55;;;;;;;74.85;31.85;;;;;;;4.60;100.00;96885.97;5043097;28;20059;-61
2022/01/07 00:18:23;;;;;;;47.42;21.38;;;;;;;4.31;100.00;96883.31;5043376;28;20061;-66
2022/01/07 00:20:51;;;;;;;42.50;17.65;;;;;;;4.37;100.00;96881.97;5042685;28;20063;-60
2022/01/07 00:23:19;;;;;;;36.28;15.40;;;;;;;4.08;100.00;96824.47;5044694;28;20055;-65
2022/01/07 00:25:45;;;;;;;35.63;15.65;;;;;;;4.45;100.00;96892.06;5046316;28;20063;-61
2022/01/07 00:28:12;;;;;;;31.80;14.80;;;;;;;4.57;100.00;96897.63;5046360;28;20053;-64
2022/01/07 00:30:39;;;;;;;30.58;15.18;;;;;;;3.88;100.00;96792.38;5046586;28;20055;-65
2022/01/07 00:33:06;;;;;;;32.13;15.13;;;;;;;4.19;100.00;96841.31;5046418;28;20049;-64
2022/01/07 00:35:34;;;;;;;32.05;16.60;;;;;;;4.51;100.00;96890.72;5046481;28;20049;-62
2022/01/07 00:38:01;;;;;;;73.47;28.52;;;;;;;4.58;100.00;96904.69;5045908;28;20606;-60
2022/01/07 00:40:28;;;;;;;63.47;26.92;;;;;;;3.80;100.00;96779.56;5046365;28;20053;-65
2022/01/07 00:42:55;;;;;;;50.05;23.67;;;;;;;4.58;100.00;96907.44;5046161;28;20057;-64
2022/01/07 00:45:24;;;;;;;44.50;22.33;;;;;;;4.59;100.00;96917.28;5037887;28;20159;-60
2022/01/07 00:47:53;;;;;;;55.25;22.65;;;;;;;4.65;100.00;96910.47;5025137;28;20064;-66
2022/01/07 00:50:21;;;;;;;45.92;20.30;;;;;;;4.57;100.00;96929.72;5026560;28;20493;-59
2022/01/07 00:52:48;;;;;;;31.58;13.85;;;;;;;4.37;100.00;96923.09;5025996;28;20049;-59
2022/01/07 00:55:16;;;;;;;25.13;11.35;;;;;;;2.09;100.00;96552.72;5025925;28;20436;-65
2022/01/07 00:57:43;;;;;;;29.33;12.95;;;;;;;4.51;100.00;96925.56;5026004;28;20050;-60
2022/01/07 01:00:13;;;;;;;33.63;14.20;;;;;;;4.51;100.00;96926.38;5024311;28;20442;-64
2022/01/07 01:02:40;;;;;;;48.85;19.80;;;;;;;4.49;100.00;96936.88;5026553;28;20412;-65
2022/01/07 01:05:09;;;;;;;41.30;17.88;;;;;;;4.49;100.00;96938.81;5025591;28;20061;-66
2022/01/07 01:07:36;;;;;;;35.63;15.82;;;;;;;4.50;100.00;96949.44;5026484;28;20064;-59
2022/01/07 01:10:07;;;;;;;38.08;16.73;;;;;;;4.57;100.00;96938.75;5024646;28;20431;-60
2022/01/07 01:12:36;;;;;;;32.45;15.32;;;;;;;4.64;100.00;96947.25;5026788;28;20045;-60
2022/01/07 01:15:08;;;;;;;31.25;15.07;;;;;;;4.59;100.00;96936.50;5025808;28;20054;-65
2022/01/07 01:17:35;;;;;;;24.60;12.05;;;;;;;4.59;100.00;96933.75;5024567;28;20064;-61
2022/01/07 01:20:08;;;;;;;29.95;13.43;;;;;;;4.55;100.00;96943.75;5025228;28;20065;-59
2022/01/07 01:22:35;;;;;;;26.38;11.43;;;;;;;4.57;100.00;96952.47;5025832;28;20274;-60
2022/01/07 01:25:04;;;;;;;29.98;12.82;;;;;;;4.51;100.00;96948.31;5024212;28;20053;-60
2022/01/07 01:27:31;;;;;;;30.08;12.98;;;;;;;4.40;100.00;96925.19;5025723;28;20128;-60
2022/01/07 01:29:58;;;;;;;22.63;10.95;;;;;;;3.82;100.00;96832.06;5025700;28;20049;-59
2022/01/07 01:32:24;;;;;;;23.40;10.43;;;;;;;4.11;100.00;96889.56;5025499;28;20084;-66
2022/01/07 01:34:51;;;;;;;23.23;11.13;;;;;;;4.46;100.00;96947.72;5025495;28;20081;-60
2022/01/07 01:37:18;;;;;;;21.77;10.63;;;;;;;4.45;100.00;96949.66;5025890;28;20045;-66
2022/01/07 01:39:45;;;;;;;20.08;8.90;;;;;;;4.53;100.00;96940.56;5025942;28;20057;-66
2022/01/07 01:42:12;;;;;;;24.88;10.45;;;;;;;4.57;100.00;96944.25;5025202;28;20049;-61
2022/01/07 01:44:39;;;;;;;20.77;9.98;;;;;;;4.67;100.00;96921.09;5027596;28;20046;-59
2022/01/07 01:47:06;;;;;;;18.02;8.48;;;;;;;4.49;99.94;96890.25;5044684;28;20059;-65
2022/01/07 01:49:32;;;;;;;18.65;7.88;;;;;;;4.96;98.51;96942.16;5043586;28;20048;-64
2022/01/07 01:52:00;;;;;;;16.65;8.05;;;;;;;5.05;97.97;96940.13;5045246;28;20053;-59
2022/01/07 01:54:27;;;;;;;13.65;6.55;;;;;;;4.47;97.39;96837.69;5045108;28;20517;-59
2022/01/07 01:56:54;;;;;;;13.70;6.15;;;;;;;5.14;97.90;96949.09;5045119;28;20045;-60
2022/01/07 01:59:26;;;;;;;11.80;5.45;;;;;;;5.13;97.95;96947.47;5045218;28;20506;-60
2022/01/07 02:01:53;;;;;;;15.25;7.20;;;;;;;4.76;97.40;96954.75;5045020;28;20547;-67
2022/01/07 02:04:21;;;;;;;21.67;9.80;;;;;;;4.74;96.40;96953.47;5044752;28;20425;-65
2022/01/07 02:06:49;;;;;;;21.92;9.80;;;;;;;4.78;93.99;96957.16;5043063;28;20045;-59
2022/01/07 02:09:17;;;;;;;26.00;11.45;;;;;;;4.31;93.30;96932.66;5044715;28;20053;-58
2022/01/07 02:11:44;;;;;;;23.13;11.35;;;;;;;4.18;92.71;96928.22;5044539;28;20057;-65
2022/01/07 02:14:11;;;;;;;23.88;11.27;;;;;;;4.39;93.06;96967.44;5044845;28;20882;-60
2022/01/07 02:16:37;;;;;;;24.05;12.23;;;;;;;4.24;94.38;96965.28;5044818;28;20057;-60
2022/01/07 02:19:04;;;;;;;25.20;12.32;;;;;;;4.17;95.37;96964.97;5044224;28;20055;-65
2022/01/07 02:21:36;;;;;;;28.17;13.23;;;;;;;3.94;96.79;96944.47;5044170;28;20216;-59
2022/01/07 02:24:05;;;;;;;28.53;13.33;;;;;;;4.10;98.03;96964.72;5044869;28;20049;-62
2022/01/07 02:26:34;;;;;;;26.52;12.38;;;;;;;4.08;98.74;96983.41;5044427;28;20500;-64
2022/01/07 02:29:01;;;;;;;29.63;12.85;;;;;;;4.05;99.70;96972.31;5044400;28;20049;-59
2022/01/07 02:31:28;;;;;;;27.92;13.82;;;;;;;3.76;99.54;96912.81;5044483;28;20052;-59
2022/01/07 02:33:55;;;;;;;30.88;14.73;;;;;;;3.96;100.00;96952.38;5043043;28;20044;-64
2022/01/07 02:36:21;;;;;;;29.83;13.93;;;;;;;4.12;100.00;96978.91;5042834;28;20451;-59
2022/01/07 02:38:48;;;;;;;32.83;14.45;;;;;;;4.11;100.00;96979.22;5043678;28;20062;-66
2022/01/07 02:41:15;;;;;;;35.95;17.10;;;;;;;4.02;100.00;96972.97;5043828;28;20053;-59
2022/01/07 02:43:42;;;;;;;33.28;14.55;;;;;;;4.00;100.00;96975.25;5042216;28;20053;-63
2022/01/07 02:46:08;;;;;;;39.83;18.35;;;;;;;4.01;100.00;96971.38;5029098;28;20516;-65
2022/01/07 02:48:35;;;;;;;63.50;25.80;;;;;;;4.02;100.00;96984.75;5022736;28;20141;-65
2022/01/07 02:51:02;;;;;;;53.33;23.85;;;;;;;4.03;100.00;96982.81;5024447;28;20053;-66
2022/01/07 02:53:29;;;;;;;43.95;19.05;;;;;;;3.86;100.00;96980.94;5022765;28;20057;-63
2022/01/07 02:55:56;;;;;;;39.88;19.30;;;;;;;3.88;100.00;96995.13;5023988;28;20529;-65
2022/01/07 02:58:22;;;;;;;36.88;16.67;;;;;;;3.86;100.00;96991.91;5022078;28;20060;-59
2022/01/07 03:00:49;;;;;;;35.47;16.13;;;;;;;3.77;100.00;96993.88;5024133;28;20432;-61
2022/01/07 03:03:16;;;;;;;35.65;17.92;;;;;;;3.91;100.00;96999.94;5023714;28;20053;-60
2022/01/07 03:05:42;;;;;;;38.15;16.95;;;;;;;3.93;100.00;96996.88;5023596;28;20496;-61
2022/01/07 03:08:10;;;;;;;45.22;21.17;;;;;;;3.92;100.00;97001.53;5023700;28;20049;-65
2022/01/07 03:10:37;;;;;;;46.78;21.52;;;;;;;3.93;100.00;97008.66;5024027;28;20052;-59
2022/01/07 03:13:05;;;;;;;42.75;21.25;;;;;;;3.98;100.00;97015.88;5022725;28;20247;-64
2022/01/07 03:15:34;;;;;;;39.80;18.15;;;;;;;1.47;100.00;96647.94;5023603;28;20061;-59
2022/01/07 03:18:01;;;;;;;42.70;20.27;;;;;;;3.16;100.00;96934.16;5023498;28;20081;-65
2022/01/07 03:20:28;;;;;;;43.33;19.35;;;;;;;3.31;100.00;96952.78;5021892;28;20073;-65
2022/01/07 03:22:56;;;;;;;37.00;17.58;;;;;;;3.50;100.00;96960.59;5022548;28;20487;-60
2022/01/07 03:25:23;;;;;;;35.03;15.00;;;;;;;3.90;100.00;97020.25;5023599;28;20053;-59
2022/01/07 03:27:50;;;;;;;59.10;21.58;;;;;;;3.95;100.00;97013.78;5023823;28;20045;-65
2022/01/07 03:30:19;;;;;;;56.55;20.13;;;;;;;3.83;100.00;97014.47;5022279;28;20427;-65
2022/01/07 03:32:45;;;;;;;35.42;14.93;;;;;;;3.41;100.00;96940.69;5022416;28;20058;-59
2022/01/07 03:35:13;;;;;;;23.70;10.57;;;;;;;3.79;100.00;96986.16;5023641;28;20480;-59
2022/01/07 03:37:41;;;;;;;32.28;13.32;;;;;;;4.14;100.00;97020.47;5023433;28;20095;-60
2022/01/07 03:40:11;;;;;;;30.42;13.38;;;;;;;4.23;100.00;97024.00;5021835;28;20504;-64
2022/01/07 03:42:38;;;;;;;33.17;13.52;;;;;;;4.24;100.00;97024.78;5023866;28;20079;-65
2022/01/07 03:45:06;;;;;;;21.60;10.27;;;;;;;4.24;100.00;97008.31;5028240;28;20049;-65
2022/01/07 03:47:33;;;;;;;22.27;9.55;;;;;;;4.25;100.00;97005.25;5042045;28;20048;-66
2022/01/07 03:49:59;;;;;;;18.25;8.98;;;;;;;3.86;100.00;96961.75;5042223;28;20052;-60
2022/01/07 03:52:26;;;;;;;21.70;10.05;;;;;;;4.48;100.00;97031.28;5041978;28;20079;-66
2022/01/07 03:54:53;;;;;;;21.27;8.43;;;;;;;4.40;99.70;97045.81;5043557;28;20516;-59
2022/01/07 03:57:20;;;;;;;14.90;7.75;;;;;;;4.57;100.00;97045.72;5045211;28;20045;-59
2022/01/07 03:59:48;;;;;;;30.38;13.73;;;;;;;4.63;99.43;97049.09;5046746;28;20057;-64
2022/01/07 04:02:14;;;;;;;65.53;30.85;;;;;;;4.49;99.05;97032.88;5047175;28;20072;-60
2022/01/07 04:04:41;;;;;;;21.35;10.68;;;;;;;4.24;98.82;97047.50;5046882;28;20135;-64
2022/01/07 04:07:08;;;;;;;29.55;12.77;;;;;;;3.89;100.00;97065.22;5047439;28;20065;-60
2022/01/07 04:09:35;;;;;;;26.63;12.65;;;;;;;3.77;100.00;97065.09;5045937;28;20053;-65
2022/01/07 04:12:03;;;;;;;29.05;13.10;;;;;;;3.93;100.00;97073.59;5047125;28;20049;-60
2022/01/07 04:14:30;;;;;;;29.83;14.05;;;;;;;3.49;100.00;96986.38;5045344;28;20084;-65
2022/01/07 04:16:59;;;;;;;28.45;12.23;;;;;;;4.19;100.00;97074.28;5046758;28;20056;-60
2022/01/07 04:19:25;;;;;;;34.20;15.07;;;;;;;3.94;100.00;97036.81;5046533;28;20135;-65
2022/01/07 04:21:52;;;;;;;29.58;14.02;;;;;;;4.08;99.81;97031.94;5046688;28;20163;-65
2022/01/07 04:24:19;;;;;;;30.50;14.75;;;;;;;4.43;100.00;97091.78;5045327;28;20060;-64
2022/01/07 04:26:46;;;;;;;35.20;15.50;;;;;;;3.77;100.00;96977.44;5046999;28;20056;-64
2022/01/07 04:29:13;;;;;;;29.33;14.00;;;;;;;4.55;100.00;97083.66;5046895;28;20537;-59
2022/01/07 04:31:39;;;;;;;27.30;12.57;;;;;;;4.72;100.00;97087.44;5046082;28;20055;-60
2022/01/07 04:34:06;;;;;;;28.02;12.25;;;;;;;4.42;98.64;97076.47;5046382;28;20495;-60
2022/01/07 04:36:33;;;;;;;37.67;14.95;;;;;;;4.35;100.00;97098.09;5046488;28;20330;-65
2022/01/07 04:39:00;;;;;;;29.17;13.73;;;;;;;4.60;100.00;97097.19;5046262;28;20045;-66
2022/01/07 04:41:27;;;;;;;45.97;19.60;;;;;;;4.70;100.00;97109.72;5046185;28;20462;-66
2022/01/07 04:43:54;;;;;;;45.55;17.38;;;;;;;4.42;99.21;97065.50;5046099;28;20049;-60
2022/01/07 04:46:21;;;;;;;33.75;15.40;;;;;;;4.86;98.89;97108.00;5031419;28;20136;-60
2022/01/07 04:48:47;;;;;;;35.53;16.67;;;;;;;4.85;98.89;97105.59;5026610;28;20072;-60
2022/01/07 04:51:14;;;;;;;43.15;16.92;;;;;;;4.96;96.50;97118.63;5026476;28;20064;-66
2022/01/07 04:53:41;;;;;;;32.22;14.10;;;;;;;4.39;94.63;97046.94;5024919;28;20431;-68
2022/01/07 04:56:07;;;;;;;26.75;13.55;;;;;;;4.85;94.35;97122.06;5026317;28;20065;-67
2022/01/07 04:58:34;;;;;;;25.55;13.20;;;;;;;4.87;94.48;97125.28;5024785;28;20050;-65
2022/01/07 05:01:01;;;;;;;26.17;14.25;;;;;;;4.85;94.86;97131.13;5025998;28;20053;-66
2022/01/07 05:03:27;;;;;;;34.83;15.77;;;;;;;4.82;95.91;97139.19;5026193;28;20056;-65
2022/01/07 05:06:06;;;;;;;47.70;18.48;;;;;;;4.75;97.32;97127.91;5026173;28;20055;-60
2022/01/07 05:08:33;;;;;;;70.68;23.95;;;;;;;4.77;96.92;97121.00;5025152;28;20117;-65
2022/01/07 05:11:00;;;;;;;163.07;50.95;;;;;;;4.99;96.38;97139.09;5025638;28;20045;-60
2022/01/07 05:13:27;;;;;;;147.73;47.28;;;;;;;5.01;96.91;97142.31;5025951;28;20053;-64
2022/01/07 05:15:54;;;;;;;111.32;40.80;;;;;;;4.87;95.99;97104.13;5024407;28;20049;-66
2022/01/07 05:18:21;;;;;;;87.03;31.90;;;;;;;5.08;94.14;97131.59;5024377;28;20432;-60
2022/01/07 05:20:48;;;;;;;83.55;31.58;;;;;;;5.11;95.97;97152.91;5024763;28;20064;-59
2022/01/07 05:23:14;;;;;;;80.35;32.53;;;;;;;5.20;96.89;97150.91;5025328;28;20052;-65
2022/01/07 05:25:41;;;;;;;56.47;25.80;;;;;;;5.28;96.33;97152.81;5025325;28;20050;-65
2022/01/07 05:28:08;;;;;;;71.40;28.60;;;;;;;5.41;94.65;97157.22;5023759;28;20116;-60
2022/01/07 05:30:35;;;;;;;86.95;34.88;;;;;;;5.43;95.34;97160.44;5023670;28;20046;-64
2022/01/07 05:33:02;;;;;;;88.65;33.53;;;;;;;5.47;95.84;97155.91;5024218;28;20053;-64
2022/01/07 05:35:29;;;;;;;89.07;34.05;;;;;;;5.46;95.46;97155.09;5025293;28;20045;-61
2022/01/07 05:37:56;;;;;;;82.30;34.95;;;;;;;5.50;94.83;97147.78;5024124;28;20053;-59
2022/01/07 05:40:22;;;;;;;87.30;35.08;;;;;;;5.53;95.95;97149.06;5023674;28;20057;-66
2022/01/07 05:42:49;;;;;;;93.97;37.72;;;;;;;5.23;96.25;97089.84;5025306;28;20057;-60
2022/01/07 05:45:16;;;;;;;74.10;32.00;;;;;;;5.66;95.77;97164.44;5029246;28;20045;-60
2022/01/07 05:47:43;;;;;;;80.70;35.20;;;;;;;5.61;94.48;97139.94;5044932;28;20049;-62
2022/01/07 05:50:10;;;;;;;77.35;33.83;;;;;;;5.73;95.10;97164.72;5044868;28;20045;-67
2022/01/07 05:52:37;;;;;;;73.95;32.38;;;;;;;5.35;95.32;97120.09;5043523;28;20056;-66
2022/01/07 05:55:05;;;;;;;73.50;30.63;;;;;;;5.41;94.51;97107.78;5037553;28;20144;-62
2022/01/07 05:57:32;;;;;;;61.65;25.35;;;;;;;5.80;93.71;97162.25;5025013;28;20536;-67
2022/01/07 05:59:59;;;;;;;53.03;22.77;;;;;;;4.85;93.89;97023.28;5023038;28;20046;-66
2022/01/07 06:02:26;;;;;;;56.50;24.98;;;;;;;5.39;94.26;97110.06;5024182;28;20504;-66
2022/01/07 06:04:53;;;;;;;58.50;24.50;;;;;;;5.66;94.78;97145.22;5023380;28;20057;-62
2022/01/07 06:07:20;;;;;;;82.80;30.33;;;;;;;5.78;94.66;97165.34;5025082;28;20435;-66
2022/01/07 06:09:47;;;;;;;64.28;27.35;;;;;;;5.73;94.20;97164.72;5023356;28;20053;-61
2022/01/07 06:12:14;;;;;;;83.63;32.47;;;;;;;5.76;94.44;97172.31;5025214;28;20048;-60
2022/01/07 06:14:40;;;;;;;95.25;31.75;;;;;;;5.16;94.16;97084.88;5025104;28;20439;-60
2022/01/07 06:17:10;;;;;;;92.55;34.20;;;;;;;5.78;94.70;97178.28;5025074;28;20049;-66
2022/01/07 06:19:37;;;;;;;77.18;29.20;;;;;;;5.95;92.66;97169.91;5023617;28;20053;-59
2022/01/07 06:22:08;;;;;;;73.13;30.63;;;;;;;5.88;93.05;97183.41;5024589;28;20135;-66
2022/01/07 06:24:35;;;;;;;83.97;30.83;;;;;;;5.91;93.46;97182.72;5024742;28;20239;-61
2022/01/07 06:27:01;;;;;;;85.43;31.45;;;;;;;5.97;93.68;97182.16;5023024;28;20057;-60
2022/01/07 06:29:28;;;;;;;80.88;32.70;;;;;;;6.05;93.47;97186.00;5024593;28;20063;-60
2022/01/07 06:31:55;;;;;;;75.65;30.08;;;;;;;5.98;92.34;97171.97;5022818;28;20064;-65
2022/01/07 06:34:23;;;;;;;68.40;27.38;;;;;;;6.13;92.24;97185.09;5024216;28;20077;-59
2022/01/07 06:36:50;;;;;;;70.72;27.73;;;;;;;5.63;93.36;97118.41;5024158;28;20498;-66
2022/01/07 06:39:22;;;;;;;70.60;30.35;;;;;;;6.16;93.28;97198.19;5023740;28;20060;-60
2022/01/07 06:41:50;;;;;;;47.15;24.88;;;;;;;6.18;93.33;97195.09;5024132;28;20152;-65
2022/01/07 06:44:18;;;;;;;60.20;27.85;;;;;;;6.33;92.22;97189.75;5023931;28;20067;-66
2022/01/07 06:46:45;;;;;;;179.70;64.95;;;;;;;6.05;92.12;97155.75;5040065;28;20044;-66
2022/01/07 06:49:13;;;;;;;221.45;82.15;;;;;;;6.31;91.37;97148.03;5043830;28;20061;-65
2022/01/07 06:51:41;;;;;;;211.52;82.82;;;;;;;6.73;90.64;97182.50;5043534;28;20052;-60
2022/01/07 06:54:11;;;;;;;190.80;73.15;;;;;;;6.88;89.50;97189.28;5043354;28;20053;-60
2022/01/07 06:56:39;;;;;;;178.80;72.22;;;;;;;7.02;89.90;97189.75;5043784;28;20056;-66
2022/01/07 06:59:06;;;;;;;162.88;67.43;;;;;;;7.17;88.93;97187.13;5043478;28;20045;-61
2022/01/07 07:01:33;;;;;;;156.35;67.38;;;;;;;7.24;87.38;97198.34;5043280;28;20053;-65
2022/01/07 07:04:00;;;;;;;97.45;46.22;;;;;;;6.98;86.25;97112.53;5042797;28;20064;-60
2022/01/07 07:06:27;;;;;;;91.43;44.95;;;;;;;7.24;85.38;97121.22;5043537;28;20148;-60
2022/01/07 07:08:54;;;;;;;75.82;31.20;;;;;;;7.89;85.04;97190.91;5038625;28;20053;-60
2022/01/07 07:11:21;;;;;;;87.85;35.75;;;;;;;7.32;85.85;97101.00;5036875;28;20416;-63
2022/01/07 07:13:47;;;;;;;72.95;33.92;;;;;;;8.03;85.89;97196.84;5024240;28;20053;-63
2022/01/07 07:16:15;;;;;;;61.05;29.50;;;;;;;7.49;84.76;97111.75;5025973;28;20083;-60
2022/01/07 07:18:42;;;;;;;69.63;31.85;;;;;;;8.26;82.33;97192.41;5040441;28;20252;-61
2022/01/07 07:21:09;;;;;;;35.88;18.27;;;;;;;8.08;81.24;97161.53;5041157;28;20061;-65
2022/01/07 07:23:35;;;;;;;35.58;14.88;;;;;;;7.52;82.83;97044.91;5042820;28;20523;-65
2022/01/07 07:26:02;;;;;;;25.20;13.10;;;;;;;8.15;81.59;97163.69;5041567;28;20049;-60
2022/01/07 07:28:29;;;;;;;28.27;14.73;;;;;;;6.99;82.08;97048.03;5037850;28;20411;-60
2022/01/07 07:31:00;;;;;;;28.80;10.00;;;;;;;7.53;82.12;97195.34;5031133;28;20127;-62
2022/01/07 07:38:43;;;;;;;28.08;12.93;;;;;;;7.95;78.03;97156.41;5046609;28;20070;-61
2022/01/07 07:41:10;;;;;;;17.15;8.65;;;;;;;7.56;75.36;97161.59;5044753;28;20064;-62
2022/01/07 07:43:38;;;;;;;13.95;8.90;;;;;;;7.09;77.13;97058.59;5041196;28;20073;-64
2022/01/07 07:46:05;;;;;;;12.77;7.38;;;;;;;8.11;76.71;97193.94;5031644;28;20132;-64
2022/01/07 07:48:33;;;;;;;13.63;8.02;;;;;;;7.74;76.87;97146.34;5045334;28;20049;-61
2022/01/07 07:51:00;;;;;;;14.07;7.43;;;;;;;7.31;75.44;97104.91;5036315;28;20495;-62
2022/01/07 07:53:27;;;;;;;12.77;7.35;;;;;;;7.14;76.95;97065.81;5038401;28;20088;-60
2022/01/07 07:55:54;;;;;;;13.15;5.93;;;;;;;7.98;76.19;97141.94;5029310;28;20571;-65
2022/01/07 07:58:22;;;;;;;15.25;7.13;;;;;;;8.14;74.80;97170.38;5037415;28;20724;-66
2022/01/07 08:00:50;;;;;;;12.20;6.10;;;;;;;7.07;74.81;97005.81;5027607;28;20065;-64
2022/01/07 08:03:19;;;;;;;11.38;5.90;;;;;;;8.13;74.84;97182.53;5038919;28;20067;-63
2022/01/07 08:05:45;;;;;;;11.18;5.55;;;;;;;8.09;75.08;97198.19;5027129;28;20049;-66
2022/01/07 08:08:12;;;;;;;9.88;6.13;;;;;;;8.03;74.68;97196.84;5042605;28;20504;-68
2022/01/07 08:10:46;;;;;;;10.65;6.55;;;;;;;8.00;76.18;97165.22;5034432;28;20053;-64
2022/01/07 08:15:59;;;;;;;12.82;6.78;;;;;;;8.04;76.69;97203.97;5045561;28;20052;-62
2022/01/07 08:18:35;;;;;;;15.55;7.50;;;;;;;8.69;75.62;97201.50;5041028;28;20060;-65
2022/01/07 08:21:05;;;;;;;13.77;8.15;;;;;;;8.52;73.27;97143.84;5034647;28;20071;-62
2022/01/07 08:23:33;;;;;;;15.30;6.57;;;;;;;8.41;73.71;97175.88;5041784;28;20155;-63
2022/01/07 08:26:03;;;;;;;19.23;9.85;;;;;;;8.67;72.73;97150.53;5030601;28;20049;-63
2022/01/07 08:28:36;;;;;;;19.13;10.57;;;;;;;9.37;71.03;97207.59;5041684;28;20047;-70
2022/01/07 08:36:26;;;;;;;16.35;9.63;;;;;;;10.25;66.73;97176.38;5033193;28;20049;-66
2022/01/07 08:38:54;;;;;;;18.00;10.10;;;;;;;10.52;67.36;97206.59;5025294;28;20356;-64
2022/01/07 08:41:25;;;;;;;16.77;9.90;;;;;;;9.33;66.40;97023.44;5025223;28;20080;-65
2022/01/07 08:43:52;;;;;;;18.80;9.88;;;;;;;10.65;67.01;97202.47;5024432;28;20097;-69
2022/01/07 08:46:19;;;;;;;22.75;11.38;;;;;;;10.70;65.35;97165.41;5026935;28;20061;-67
2022/01/07 08:48:46;;;;;;;20.58;10.88;;;;;;;10.13;64.39;97085.97;5040679;28;20153;-67
2022/01/07 08:51:13;;;;;;;21.50;11.77;;;;;;;11.07;64.20;97193.34;5043831;28;20049;-66
2022/01/07 08:53:40;;;;;;;23.02;12.00;;;;;;;11.21;62.70;97196.34;5043915;28;20526;-65
2022/01/07 08:56:07;;;;;;;20.73;11.82;;;;;;;11.12;63.11;97193.03;5043719;28;20064;-62
2022/01/07 08:58:35;;;;;;;20.50;10.38;;;;;;;10.97;62.77;97191.22;5044616;28;20498;-66
2022/01/07 09:01:02;;;;;;;20.27;11.18;;;;;;;11.01;63.35;97194.81;5044909;28;20144;-68
2022/01/07 09:03:30;;;;;;;18.65;11.15;;;;;;;9.96;63.25;97053.19;5043516;28;20049;-67
2022/01/07 09:05:59;;;;;;;15.02;8.07;;;;;;;10.49;61.99;97143.66;5030146;28;20053;-62
2022/01/07 09:08:26;;;;;;;15.60;9.35;;;;;;;11.06;61.51;97205.63;5040257;28;20504;-64
2022/01/07 09:10:53;;;;;;;15.32;8.27;;;;;;;7.97;62.69;96740.41;5042139;28;20052;-63
2022/01/07 09:13:20;;;;;;;14.55;7.13;;;;;;;10.12;63.35;97134.19;5044032;28;20049;-64
2022/01/07 09:15:46;;;;;;;10.88;6.70;;;;;;;9.37;64.90;97134.91;5040025;28;20056;-65
2022/01/07 09:18:14;;;;;;;14.18;6.60;;;;;;;10.09;65.31;97190.28;5043164;28;20053;-61
2022/01/07 09:20:44;;;;;;;13.48;6.78;;;;;;;10.10;64.72;97191.09;5031232;28;20061;-65
2022/01/07 09:23:12;;;;;;;13.82;6.60;;;;;;;9.03;65.83;97117.13;5022666;28;20451;-62
2022/01/07 09:25:39;;;;;;;15.15;6.85;;;;;;;9.32;67.23;97187.69;5031516;28;20054;-61
2022/01/07 09:28:07;;;;;;;12.73;6.88;;;;;;;8.90;66.65;97151.53;5038452;28;20052;-71
2022/01/07 09:30:35;;;;;;;15.88;7.25;;;;;;;9.67;65.98;97192.09;5041140;28;20064;-68
2022/01/07 09:33:03;;;;;;;17.08;8.13;;;;;;;9.86;64.77;97164.47;5041713;28;20051;-65
2022/01/07 09:35:31;;;;;;;10.48;6.43;;;;;;;10.14;63.27;97175.34;5042147;28;20053;-65
2022/01/07 09:37:58;;;;;;;12.05;5.78;;;;;;;9.30;66.25;97178.94;5039160;28;20436;-61
2022/01/07 09:40:25;;;;;;;11.35;6.07;;;;;;;9.14;68.95;97181.72;5026436;28;20060;-64
2022/01/07 09:42:58;;;;;;;58.95;18.70;;;;;;;9.18;69.51;97171.59;5031477;28;20057;-62
2022/01/07 09:45:27;;;;;;;15.50;7.95;;;;;;;8.62;70.33;97126.75;5035870;28;20053;-62
2022/01/07 09:47:55;;;;;;;30.10;10.95;;;;;;;8.83;71.27;97148.59;5042221;28;20053;-64
2022/01/07 09:50:24;;;;;;;12.45;6.53;;;;;;;8.58;71.67;97177.53;5040793;28;20045;-62
2022/01/07 09:52:51;;;;;;;15.15;6.93;;;;;;;6.26;71.63;96825.66;5044231;28;20063;-66
2022/01/07 09:55:18;;;;;;;7.53;3.42;;;;;;;8.43;72.54;97179.09;5040000;28;20044;-63
2022/01/07 09:57:45;;;;;;;20.58;8.88;;;;;;;8.55;73.52;97181.00;5043124;28;20064;-67
2022/01/07 10:00:12;;;;;;;43.20;11.75;;;;;;;8.38;73.48;97181.28;5029538;28;20055;-70
2022/01/07 10:03:05;;;;;;;10.48;5.60;;;;;;;8.05;74.67;97177.97;5042843;28;20056;-70
2022/01/07 10:05:43;;;;;;;19.30;9.05;;;;;;;8.12;74.03;97183.69;5031531;28;20053;-70
2022/01/07 10:08:25;;;;;;;17.17;7.07;;;;;;;8.20;73.23;97160.69;5041737;28;20066;-64
2022/01/07 10:11:16;;;;;;;14.15;6.03;;;;;;;8.21;73.93;97181.59;5032342;28;20542;-68
2022/01/07 10:13:48;;;;;;;15.80;7.40;;;;;;;8.59;74.29;97176.38;5042580;28;20057;-65
2022/01/07 10:16:22;;;;;;;11.00;5.43;;;;;;;8.58;71.69;97175.56;5042451;28;20792;-63
2022/01/07 10:18:51;;;;;;;16.40;7.45;;;;;;;9.04;71.54;97220.97;5041454;28;20052;-67
2022/01/07 10:21:19;;;;;;;24.83;10.07;;;;;;;8.49;71.68;97094.06;5042107;28;21011;-64
2022/01/07 10:23:47;;;;;;;16.85;7.88;;;;;;;9.17;69.65;97136.78;5039262;28;20127;-69
2022/01/07 10:26:19;;;;;;;22.23;9.73;;;;;;;9.13;68.61;97105.53;5042373;28;20124;-68
2022/01/07 10:28:47;;;;;;;14.68;6.43;;;;;;;9.88;67.70;97173.19;5042627;28;20056;-63
2022/01/07 10:31:24;;;;;;;60.40;16.80;;;;;;;8.70;66.96;96968.41;5043283;28;20049;-62
2022/01/07 10:33:53;;;;;;;32.55;13.13;;;;;;;10.13;66.35;97174.53;5041933;28;20131;-64
2022/01/07 10:36:22;;;;;;;31.42;10.90;;;;;;;10.15;65.39;97177.75;5043000;28;20052;-69
2022/01/07 10:39:00;;;;;;;34.65;11.63;;;;;;;10.29;65.32;97178.03;5043649;28;20504;-63
2022/01/07 10:41:27;;;;;;;25.02;11.35;;;;;;;10.19;65.05;97178.66;5042634;28;20056;-70
2022/01/07 10:44:02;;;;;;;17.95;8.82;;;;;;;9.79;65.51;97153.25;5043262;28;20040;-63
2022/01/07 10:46:31;;;;;;;27.60;12.52;;;;;;;9.52;66.34;97167.22;5043154;28;20515;-63
2022/01/07 10:49:00;;;;;;;14.70;7.00;;;;;;;9.87;66.73;97171.59;5043092;28;20102;-62
2022/01/07 10:51:41;;;;;;;28.63;10.73;;;;;;;9.90;67.39;97181.13;5041601;28;20516;-68
2022/01/07 10:54:10;;;;;;;36.03;13.05;;;;;;;8.84;67.19;97050.75;5043423;28;20049;-62
2022/01/07 10:56:38;;;;;;;33.00;12.65;;;;;;;9.68;67.61;97168.81;5041615;28;20049;-62
2022/01/07 10:59:07;;;;;;;16.40;8.82;;;;;;;9.61;69.26;97174.16;5041567;28;20134;-68
2022/01/07 11:01:42;;;;;;;21.20;8.90;;;;;;;9.52;69.98;97173.56;5038724;28;20049;-61
2022/01/07 11:04:16;;;;;;;17.25;8.45;;;;;;;9.22;70.29;97139.28;5037246;28;20044;-65
2022/01/07 11:06:44;;;;;;;19.58;10.00;;;;;;;8.63;70.58;97061.31;5039956;28;20044;-64
2022/01/07 11:09:13;;;;;;;13.95;7.57;;;;;;;8.99;71.05;97152.94;5030011;28;20146;-67
2022/01/07 11:11:45;;;;;;;14.45;7.22;;;;;;;8.73;71.22;97176.72;5040245;28;20048;-64
2022/01/07 11:14:16;;;;;;;13.95;6.95;;;;;;;7.44;71.93;96999.03;5021609;28;20055;-63
2022/01/07 11:16:43;;;;;;;12.48;5.43;;;;;;;7.51;72.82;97081.88;5031656;28;20405;-67
2022/01/07 11:19:14;;;;;;;15.25;5.43;;;;;;;7.88;74.05;97167.22;5040681;28;20070;-61
2022/01/07 11:21:41;;;;;;;18.08;7.15;;;;;;;8.08;73.37;97171.78;5041878;28;20083;-66
2022/01/07 11:24:36;;;;;;;24.45;8.70;;;;;;;7.97;73.90;97176.16;5040607;28;20055;-65
2022/01/07 11:27:08;;;;;;;18.45;8.23;;;;;;;7.90;72.07;97115.28;5035838;28;20076;-65
2022/01/07 11:29:38;;;;;;;12.05;7.63;;;;;;;7.45;70.87;97174.25;5041539;28;20051;-65
2022/01/07 11:32:25;;;;;;;11.50;5.65;;;;;;;8.51;69.59;97174.56;5042041;28;20519;-62
2022/01/07 11:34:53;;;;;;;12.25;5.22;;;;;;;8.24;68.43;97187.25;5041506;28;20135;-65
2022/01/07 11:37:36;;;;;;;14.13;6.75;;;;;;;8.48;69.16;97178.03;5041531;28;20531;-69
2022/01/07 11:40:05;;;;;;;11.85;6.78;;;;;;;7.71;67.81;97052.53;5041187;28;20048;-64
2022/01/07 11:42:42;;;;;;;14.82;6.05;;;;;;;8.20;69.17;97185.50;5042417;28;20137;-65